sensor_id;sensor_type;location;lat;lon;timestamp;pressure;altitude;pressure_sealevel;temperature
79148;BMP280;68562;51.600;6.524;2023-05-07T00:00:00;1015.2;;;21.0
79148;BMP280;68562;51.600;6.524;2023-05-07T00:05:00;1015.2;;;20.8
79148;BMP280;68562;51.600;6.524;2023-05-07T00:10:00;1015.1;;;20.7
79148;BMP280;68562;51.600;6.524;2023-05-07T00:15:01;1015.2;;;20.6
79148;BMP280;68562;51.600;6.524;2023-05-07T00:20:00;1015.1;;;20.5
79148;BMP280;68562;51.600;6.524;2023-05-07T00:25:00;1015.1;;;20.4
79148;BMP280;68562;51.600;6.524;2023-05-07T00:30:00;1015.0;;;20.4
79148;BMP280;68562;51.600;6.524;2023-05-07T00:35:00;1015.0;;;20.3
79148;BMP280;68562;51.600;6.524;2023-05-07T00:40:00;1015.0;;;20.2
79148;BMP280;68562;51.600;6.524;2023-05-07T00:45:00;1014.9;;;20.1
79148;BMP280;68562;51.600;6.524;2023-05-07T00:50:00;1014.8;;;20.1
79148;BMP280;68562;51.600;6.524;2023-05-07T00:55:04;1014.8;;;20.0
79148;BMP280;68562;51.600;6.524;2023-05-07T01:00:00;1014.7;;;20.0
79148;BMP280;68562;51.600;6.524;2023-05-07T01:05:00;1014.8;;;19.8
79148;BMP280;68562;51.600;6.524;2023-05-07T01:10:00;1014.8;;;19.8
79148;BMP280;68562;51.600;6.524;2023-05-07T01:15:00;1014.8;;;19.7
79148;BMP280;68562;51.600;6.524;2023-05-07T01:20:00;1014.8;;;19.7
79148;BMP280;68562;51.600;6.524;2023-05-07T01:25:00;1014.8;;;19.7
79148;BMP280;68562;51.600;6.524;2023-05-07T01:30:00;1014.8;;;19.7
79148;BMP280;68562;51.600;6.524;2023-05-07T01:35:01;1014.7;;;19.6
79148;BMP280;68562;51.600;6.524;2023-05-07T01:40:01;1014.8;;;19.6
79148;BMP280;68562;51.600;6.524;2023-05-07T01:45:00;1014.8;;;19.6
79148;BMP280;68562;51.600;6.524;2023-05-07T01:50:00;1014.8;;;19.6
79148;BMP280;68562;51.600;6.524;2023-05-07T01:55:00;1014.9;;;19.6
79148;BMP280;68562;51.600;6.524;2023-05-07T02:00:00;1014.9;;;19.6
79148;BMP280;68562;51.600;6.524;2023-05-07T02:05:00;1014.8;;;19.6
79148;BMP280;68562;51.600;6.524;2023-05-07T02:10:00;1014.8;;;19.6
79148;BMP280;68562;51.600;6.524;2023-05-07T02:15:00;1014.8;;;19.6
79148;BMP280;68562;51.600;6.524;2023-05-07T02:20:00;1014.8;;;19.6
79148;BMP280;68562;51.600;6.524;2023-05-07T02:25:00;1014.8;;;19.6
79148;BMP280;68562;51.600;6.524;2023-05-07T02:30:00;1014.8;;;19.5
79148;BMP280;68562;51.600;6.524;2023-05-07T02:35:00;1014.7;;;19.5
79148;BMP280;68562;51.600;6.524;2023-05-07T02:40:00;1014.7;;;19.4
79148;BMP280;68562;51.600;6.524;2023-05-07T02:45:00;1014.7;;;19.3
79148;BMP280;68562;51.600;6.524;2023-05-07T02:50:00;1014.7;;;19.2
79148;BMP280;68562;51.600;6.524;2023-05-07T02:55:00;1014.7;;;19.2
79148;BMP280;68562;51.600;6.524;2023-05-07T03:00:10;1014.7;;;19.1
79148;BMP280;68562;51.600;6.524;2023-05-07T03:05:00;1014.7;;;19.0
79148;BMP280;68562;51.600;6.524;2023-05-07T03:10:00;1014.8;;;19.0
79148;BMP280;68562;51.600;6.524;2023-05-07T03:15:00;1014.8;;;19.0
79148;BMP280;68562;51.600;6.524;2023-05-07T03:20:00;1014.8;;;18.9
79148;BMP280;68562;51.600;6.524;2023-05-07T03:25:00;1014.7;;;18.9
79148;BMP280;68562;51.600;6.524;2023-05-07T03:30:00;1014.7;;;18.8
79148;BMP280;68562;51.600;6.524;2023-05-07T03:35:00;1014.6;;;18.8
79148;BMP280;68562;51.600;6.524;2023-05-07T03:40:00;1014.7;;;18.7
79148;BMP280;68562;51.600;6.524;2023-05-07T03:45:00;1014.7;;;18.7
79148;BMP280;68562;51.600;6.524;2023-05-07T03:50:00;1014.6;;;18.6
79148;BMP280;68562;51.600;6.524;2023-05-07T03:55:00;1014.7;;;18.6
79148;BMP280;68562;51.600;6.524;2023-05-07T04:00:00;1014.7;;;18.6
79148;BMP280;68562;51.600;6.524;2023-05-07T04:05:00;1014.7;;;18.5
79148;BMP280;68562;51.600;6.524;2023-05-07T04:10:00;1014.8;;;18.5
79148;BMP280;68562;51.600;6.524;2023-05-07T04:15:00;1014.8;;;18.4
79148;BMP280;68562;51.600;6.524;2023-05-07T04:20:00;1014.9;;;18.4
79148;BMP280;68562;51.600;6.524;2023-05-07T04:25:00;1014.8;;;18.4
79148;BMP280;68562;51.600;6.524;2023-05-07T04:30:00;1014.8;;;18.4
79148;BMP280;68562;51.600;6.524;2023-05-07T04:35:00;1014.8;;;18.4
79148;BMP280;68562;51.600;6.524;2023-05-07T04:40:00;1014.8;;;18.4
79148;BMP280;68562;51.600;6.524;2023-05-07T04:45:01;1014.9;;;18.4
79148;BMP280;68562;51.600;6.524;2023-05-07T04:50:00;1014.9;;;18.4
79148;BMP280;68562;51.600;6.524;2023-05-07T04:55:00;1014.9;;;18.4
79148;BMP280;68562;51.600;6.524;2023-05-07T05:00:00;1015.0;;;18.4
79148;BMP280;68562;51.600;6.524;2023-05-07T05:05:00;1015.0;;;18.5
79148;BMP280;68562;51.600;6.524;2023-05-07T05:10:01;1015.0;;;18.6
79148;BMP280;68562;51.600;6.524;2023-05-07T05:15:00;1015.1;;;18.7
79148;BMP280;68562;51.600;6.524;2023-05-07T05:20:00;1015.0;;;18.8
79148;BMP280;68562;51.600;6.524;2023-05-07T05:25:00;1015.0;;;19.0
79148;BMP280;68562;51.600;6.524;2023-05-07T05:30:00;1015.0;;;19.0
79148;BMP280;68562;51.600;6.524;2023-05-07T05:35:00;1015.0;;;19.1
79148;BMP280;68562;51.600;6.524;2023-05-07T05:40:00;1015.0;;;19.2
79148;BMP280;68562;51.600;6.524;2023-05-07T05:45:00;1015.1;;;19.3
79148;BMP280;68562;51.600;6.524;2023-05-07T05:50:00;1015.2;;;19.4
79148;BMP280;68562;51.600;6.524;2023-05-07T05:55:00;1015.2;;;19.6
79148;BMP280;68562;51.600;6.524;2023-05-07T06:00:00;1015.2;;;19.8
79148;BMP280;68562;51.600;6.524;2023-05-07T06:05:00;1015.2;;;19.9
79148;BMP280;68562;51.600;6.524;2023-05-07T06:10:00;1015.3;;;20.0
79148;BMP280;68562;51.600;6.524;2023-05-07T06:15:00;1015.4;;;20.2
79148;BMP280;68562;51.600;6.524;2023-05-07T06:20:00;1015.4;;;20.4
79148;BMP280;68562;51.600;6.524;2023-05-07T06:25:00;1015.4;;;20.6
79148;BMP280;68562;51.600;6.524;2023-05-07T06:30:00;1015.4;;;20.8
79148;BMP280;68562;51.600;6.524;2023-05-07T06:35:00;1015.4;;;20.9
79148;BMP280;68562;51.600;6.524;2023-05-07T06:40:00;1015.4;;;21.0
79148;BMP280;68562;51.600;6.524;2023-05-07T06:45:00;1015.5;;;21.1
79148;BMP280;68562;51.600;6.524;2023-05-07T06:50:00;1015.5;;;21.2
79148;BMP280;68562;51.600;6.524;2023-05-07T06:55:00;1015.5;;;21.3
79148;BMP280;68562;51.600;6.524;2023-05-07T07:00:00;1015.5;;;21.4
79148;BMP280;68562;51.600;6.524;2023-05-07T07:05:00;1015.5;;;21.4
79148;BMP280;68562;51.600;6.524;2023-05-07T07:10:00;1015.5;;;21.5
79148;BMP280;68562;51.600;6.524;2023-05-07T07:15:00;1015.5;;;21.7
79148;BMP280;68562;51.600;6.524;2023-05-07T07:20:00;1015.5;;;22.0
79148;BMP280;68562;51.600;6.524;2023-05-07T07:25:00;1015.4;;;22.2
79148;BMP280;68562;51.600;6.524;2023-05-07T07:30:00;1015.5;;;22.5
79148;BMP280;68562;51.600;6.524;2023-05-07T07:35:00;1015.5;;;22.7
79148;BMP280;68562;51.600;6.524;2023-05-07T07:40:00;1015.4;;;22.9
79148;BMP280;68562;51.600;6.524;2023-05-07T07:45:00;1015.4;;;23.1
79148;BMP280;68562;51.600;6.524;2023-05-07T07:50:00;1015.5;;;23.4
79148;BMP280;68562;51.600;6.524;2023-05-07T07:55:00;1015.6;;;23.6
79148;BMP280;68562;51.600;6.524;2023-05-07T08:00:00;1015.6;;;23.9
79148;BMP280;68562;51.600;6.524;2023-05-07T08:05:00;1015.6;;;24.3
79148;BMP280;68562;51.600;6.524;2023-05-07T08:10:00;1015.7;;;24.8
79148;BMP280;68562;51.600;6.524;2023-05-07T08:15:00;1015.7;;;25.0
79148;BMP280;68562;51.600;6.524;2023-05-07T08:20:00;1015.7;;;25.2
79148;BMP280;68562;51.600;6.524;2023-05-07T08:25:00;1015.8;;;25.2
79148;BMP280;68562;51.600;6.524;2023-05-07T08:30:00;1015.8;;;25.3
79148;BMP280;68562;51.600;6.524;2023-05-07T08:35:00;1015.8;;;25.4
79148;BMP280;68562;51.600;6.524;2023-05-07T08:40:00;1015.8;;;25.5
79148;BMP280;68562;51.600;6.524;2023-05-07T08:45:01;1015.8;;;25.6
79148;BMP280;68562;51.600;6.524;2023-05-07T08:50:01;1015.8;;;25.9
79148;BMP280;68562;51.600;6.524;2023-05-07T08:55:02;1015.8;;;26.3
79148;BMP280;68562;51.600;6.524;2023-05-07T09:00:00;1015.8;;;26.8
79148;BMP280;68562;51.600;6.524;2023-05-07T09:05:00;1015.7;;;27.7
79148;BMP280;68562;51.600;6.524;2023-05-07T09:10:01;1015.7;;;28.4
79148;BMP280;68562;51.600;6.524;2023-05-07T09:15:00;1015.7;;;29.0
79148;BMP280;68562;51.600;6.524;2023-05-07T09:20:03;1015.8;;;29.5
79148;BMP280;68562;51.600;6.524;2023-05-07T09:25:00;1015.7;;;30.1
79148;BMP280;68562;51.600;6.524;2023-05-07T09:30:03;1015.7;;;30.9
79148;BMP280;68562;51.600;6.524;2023-05-07T09:35:00;1015.7;;;31.6
79148;BMP280;68562;51.600;6.524;2023-05-07T09:40:00;1015.6;;;32.6
79148;BMP280;68562;51.600;6.524;2023-05-07T09:45:00;1015.6;;;33.0
79148;BMP280;68562;51.600;6.524;2023-05-07T09:50:02;1015.6;;;32.8
79148;BMP280;68562;51.600;6.524;2023-05-07T09:55:00;1015.6;;;32.4
79148;BMP280;68562;51.600;6.524;2023-05-07T10:00:01;1015.7;;;32.0
79148;BMP280;68562;51.600;6.524;2023-05-07T10:05:01;1015.6;;;32.1
79148;BMP280;68562;51.600;6.524;2023-05-07T10:10:01;1015.6;;;32.7
79148;BMP280;68562;51.600;6.524;2023-05-07T10:15:00;1015.6;;;33.3
79148;BMP280;68562;51.600;6.524;2023-05-07T10:20:00;1015.6;;;33.8
79148;BMP280;68562;51.600;6.524;2023-05-07T10:25:02;1015.6;;;33.9
79148;BMP280;68562;51.600;6.524;2023-05-07T10:30:07;1015.6;;;34.0
79148;BMP280;68562;51.600;6.524;2023-05-07T10:35:03;1015.6;;;34.1
79148;BMP280;68562;51.600;6.524;2023-05-07T10:40:01;1015.6;;;33.8
79148;BMP280;68562;51.600;6.524;2023-05-07T10:45:11;1015.6;;;33.2
79148;BMP280;68562;51.600;6.524;2023-05-07T11:00:00;1015.6;;;32.8
79148;BMP280;68562;51.600;6.524;2023-05-07T11:10:01;1015.6;;;33.0
79148;BMP280;68562;51.600;6.524;2023-05-07T11:15:00;1015.6;;;33.4
79148;BMP280;68562;51.600;6.524;2023-05-07T11:20:01;1015.5;;;33.7
79148;BMP280;68562;51.600;6.524;2023-05-07T11:25:01;1015.5;;;34.2
79148;BMP280;68562;51.600;6.524;2023-05-07T11:30:00;1015.5;;;34.7
79148;BMP280;68562;51.600;6.524;2023-05-07T11:35:00;1015.5;;;35.1
79148;BMP280;68562;51.600;6.524;2023-05-07T11:40:02;1015.5;;;34.9
79148;BMP280;68562;51.600;6.524;2023-05-07T11:45:01;1015.5;;;34.6
79148;BMP280;68562;51.600;6.524;2023-05-07T11:50:04;1015.5;;;34.2
79148;BMP280;68562;51.600;6.524;2023-05-07T11:55:01;1015.6;;;34.0
79148;BMP280;68562;51.600;6.524;2023-05-07T12:00:00;1015.6;;;33.8
79148;BMP280;68562;51.600;6.524;2023-05-07T12:05:00;1015.6;;;33.5
79148;BMP280;68562;51.600;6.524;2023-05-07T12:10:04;1015.6;;;33.2
79148;BMP280;68562;51.600;6.524;2023-05-07T12:15:00;1015.6;;;32.7
79148;BMP280;68562;51.600;6.524;2023-05-07T12:20:00;1015.6;;;32.3
79148;BMP280;68562;51.600;6.524;2023-05-07T12:25:00;1015.6;;;32.1
79148;BMP280;68562;51.600;6.524;2023-05-07T12:30:00;1015.6;;;32.0
79148;BMP280;68562;51.600;6.524;2023-05-07T12:35:00;1015.6;;;31.9
79148;BMP280;68562;51.600;6.524;2023-05-07T12:40:04;1015.7;;;31.6
79148;BMP280;68562;51.600;6.524;2023-05-07T12:45:07;1015.7;;;31.4
79148;BMP280;68562;51.600;6.524;2023-05-07T12:50:00;1015.7;;;31.3
79148;BMP280;68562;51.600;6.524;2023-05-07T12:55:04;1015.7;;;31.2
79148;BMP280;68562;51.600;6.524;2023-05-07T13:00:00;1015.8;;;31.1
79148;BMP280;68562;51.600;6.524;2023-05-07T13:05:00;1015.8;;;31.0
79148;BMP280;68562;51.600;6.524;2023-05-07T13:10:01;1015.8;;;30.9
79148;BMP280;68562;51.600;6.524;2023-05-07T13:15:00;1015.8;;;30.6
79148;BMP280;68562;51.600;6.524;2023-05-07T13:20:00;1015.8;;;30.4
79148;BMP280;68562;51.600;6.524;2023-05-07T13:25:00;1015.8;;;30.1
79148;BMP280;68562;51.600;6.524;2023-05-07T13:30:00;1015.8;;;29.8
79148;BMP280;68562;51.600;6.524;2023-05-07T13:35:00;1015.9;;;29.6
79148;BMP280;68562;51.600;6.524;2023-05-07T13:40:00;1016.0;;;29.5
79148;BMP280;68562;51.600;6.524;2023-05-07T13:45:00;1016.0;;;29.2
79148;BMP280;68562;51.600;6.524;2023-05-07T13:50:00;1016.0;;;29.0
79148;BMP280;68562;51.600;6.524;2023-05-07T13:55:00;1016.1;;;28.7
79148;BMP280;68562;51.600;6.524;2023-05-07T14:00:00;1016.1;;;28.4
79148;BMP280;68562;51.600;6.524;2023-05-07T14:05:00;1016.1;;;28.0
79148;BMP280;68562;51.600;6.524;2023-05-07T14:10:00;1016.1;;;27.9
79148;BMP280;68562;51.600;6.524;2023-05-07T14:15:00;1016.1;;;27.8
79148;BMP280;68562;51.600;6.524;2023-05-07T14:20:00;1016.1;;;27.7
79148;BMP280;68562;51.600;6.524;2023-05-07T14:25:00;1016.1;;;27.6
79148;BMP280;68562;51.600;6.524;2023-05-07T14:30:00;1016.1;;;27.5
79148;BMP280;68562;51.600;6.524;2023-05-07T14:35:00;1016.1;;;27.4
79148;BMP280;68562;51.600;6.524;2023-05-07T14:40:00;1016.1;;;27.4
79148;BMP280;68562;51.600;6.524;2023-05-07T14:45:00;1016.1;;;27.4
79148;BMP280;68562;51.600;6.524;2023-05-07T14:50:00;1016.0;;;27.5
79148;BMP280;68562;51.600;6.524;2023-05-07T14:55:00;1016.1;;;27.5
79148;BMP280;68562;51.600;6.524;2023-05-07T15:00:00;1016.1;;;27.6
79148;BMP280;68562;51.600;6.524;2023-05-07T15:05:00;1016.2;;;27.4
79148;BMP280;68562;51.600;6.524;2023-05-07T15:10:00;1016.2;;;27.2
79148;BMP280;68562;51.600;6.524;2023-05-07T15:15:00;1016.3;;;27.1
79148;BMP280;68562;51.600;6.524;2023-05-07T15:20:00;1016.3;;;26.9
79148;BMP280;68562;51.600;6.524;2023-05-07T15:25:00;1016.3;;;26.5
79148;BMP280;68562;51.600;6.524;2023-05-07T15:30:00;1016.3;;;26.0
79148;BMP280;68562;51.600;6.524;2023-05-07T15:35:00;1016.2;;;25.7
79148;BMP280;68562;51.600;6.524;2023-05-07T15:40:00;1016.3;;;25.2
79148;BMP280;68562;51.600;6.524;2023-05-07T15:45:00;1016.3;;;24.9
79148;BMP280;68562;51.600;6.524;2023-05-07T15:50:00;1016.3;;;24.6
79148;BMP280;68562;51.600;6.524;2023-05-07T15:55:00;1016.3;;;24.5
79148;BMP280;68562;51.600;6.524;2023-05-07T16:00:00;1016.5;;;24.3
79148;BMP280;68562;51.600;6.524;2023-05-07T16:05:00;1016.7;;;24.1
79148;BMP280;68562;51.600;6.524;2023-05-07T16:10:00;1016.8;;;23.8
79148;BMP280;68562;51.600;6.524;2023-05-07T16:15:00;1016.8;;;23.8
79148;BMP280;68562;51.600;6.524;2023-05-07T16:20:01;1016.8;;;23.1
79148;BMP280;68562;51.600;6.524;2023-05-07T16:25:00;1017.0;;;22.6
79148;BMP280;68562;51.600;6.524;2023-05-07T16:30:00;1017.0;;;22.3
79148;BMP280;68562;51.600;6.524;2023-05-07T16:35:00;1017.0;;;22.5
79148;BMP280;68562;51.600;6.524;2023-05-07T16:40:01;1017.1;;;22.4
79148;BMP280;68562;51.600;6.524;2023-05-07T16:45:00;1017.1;;;22.3
79148;BMP280;68562;51.600;6.524;2023-05-07T16:50:00;1017.0;;;22.4
79148;BMP280;68562;51.600;6.524;2023-05-07T16:55:00;1017.0;;;22.6
79148;BMP280;68562;51.600;6.524;2023-05-07T17:00:00;1017.1;;;22.7
79148;BMP280;68562;51.600;6.524;2023-05-07T17:05:00;1017.2;;;22.7
79148;BMP280;68562;51.600;6.524;2023-05-07T17:10:01;1017.2;;;22.5
79148;BMP280;68562;51.600;6.524;2023-05-07T17:15:00;1017.2;;;22.4
79148;BMP280;68562;51.600;6.524;2023-05-07T17:20:00;1017.2;;;22.2
79148;BMP280;68562;51.600;6.524;2023-05-07T17:25:00;1017.3;;;22.2
79148;BMP280;68562;51.600;6.524;2023-05-07T17:30:00;1017.3;;;22.2
79148;BMP280;68562;51.600;6.524;2023-05-07T17:35:00;1017.3;;;22.2
79148;BMP280;68562;51.600;6.524;2023-05-07T17:40:00;1017.3;;;22.2
79148;BMP280;68562;51.600;6.524;2023-05-07T17:45:00;1017.3;;;22.2
79148;BMP280;68562;51.600;6.524;2023-05-07T17:50:00;1017.3;;;22.2
79148;BMP280;68562;51.600;6.524;2023-05-07T17:55:00;1017.3;;;22.2
79148;BMP280;68562;51.600;6.524;2023-05-07T18:00:00;1017.3;;;22.1
79148;BMP280;68562;51.600;6.524;2023-05-07T18:05:00;1017.4;;;22.1
79148;BMP280;68562;51.600;6.524;2023-05-07T18:10:00;1017.5;;;22.1
79148;BMP280;68562;51.600;6.524;2023-05-07T18:15:00;1017.5;;;22.0
79148;BMP280;68562;51.600;6.524;2023-05-07T18:20:00;1017.6;;;22.0
79148;BMP280;68562;51.600;6.524;2023-05-07T18:25:00;1017.6;;;21.9
79148;BMP280;68562;51.600;6.524;2023-05-07T18:30:00;1017.6;;;21.9
79148;BMP280;68562;51.600;6.524;2023-05-07T18:35:00;1017.6;;;21.8
79148;BMP280;68562;51.600;6.524;2023-05-07T18:40:00;1017.6;;;21.8
79148;BMP280;68562;51.600;6.524;2023-05-07T18:45:00;1017.7;;;21.7
79148;BMP280;68562;51.600;6.524;2023-05-07T18:50:00;1017.7;;;21.6
79148;BMP280;68562;51.600;6.524;2023-05-07T18:55:00;1017.7;;;21.6
79148;BMP280;68562;51.600;6.524;2023-05-07T19:00:00;1017.8;;;21.5
79148;BMP280;68562;51.600;6.524;2023-05-07T19:05:00;1017.8;;;21.5
79148;BMP280;68562;51.600;6.524;2023-05-07T19:10:00;1017.9;;;21.4
79148;BMP280;68562;51.600;6.524;2023-05-07T19:15:00;1017.9;;;21.3
79148;BMP280;68562;51.600;6.524;2023-05-07T19:20:00;1017.9;;;21.2
79148;BMP280;68562;51.600;6.524;2023-05-07T19:25:00;1018.0;;;21.2
79148;BMP280;68562;51.600;6.524;2023-05-07T19:30:00;1018.1;;;21.2
79148;BMP280;68562;51.600;6.524;2023-05-07T19:35:00;1018.1;;;21.0
79148;BMP280;68562;51.600;6.524;2023-05-07T19:40:00;1018.1;;;21.0
79148;BMP280;68562;51.600;6.524;2023-05-07T19:45:00;1018.2;;;20.8
79148;BMP280;68562;51.600;6.524;2023-05-07T19:50:00;1018.2;;;20.8
79148;BMP280;68562;51.600;6.524;2023-05-07T19:55:00;1018.2;;;20.7
79148;BMP280;68562;51.600;6.524;2023-05-07T20:00:00;1018.3;;;20.6
79148;BMP280;68562;51.600;6.524;2023-05-07T20:05:00;1018.4;;;20.6
79148;BMP280;68562;51.600;6.524;2023-05-07T20:10:00;1018.4;;;20.6
79148;BMP280;68562;51.600;6.524;2023-05-07T20:15:00;1018.4;;;20.5
79148;BMP280;68562;51.600;6.524;2023-05-07T20:20:00;1018.5;;;20.5
79148;BMP280;68562;51.600;6.524;2023-05-07T20:25:02;1018.5;;;20.5
79148;BMP280;68562;51.600;6.524;2023-05-07T20:30:00;1018.5;;;20.5
79148;BMP280;68562;51.600;6.524;2023-05-07T20:35:00;1018.5;;;20.5
79148;BMP280;68562;51.600;6.524;2023-05-07T20:40:00;1018.5;;;20.6
79148;BMP280;68562;51.600;6.524;2023-05-07T20:45:00;1018.5;;;20.6
79148;BMP280;68562;51.600;6.524;2023-05-07T20:50:00;1018.6;;;20.6
79148;BMP280;68562;51.600;6.524;2023-05-07T20:55:00;1018.6;;;20.6
79148;BMP280;68562;51.600;6.524;2023-05-07T21:00:01;1018.6;;;20.6
79148;BMP280;68562;51.600;6.524;2023-05-07T21:05:00;1018.6;;;20.6
79148;BMP280;68562;51.600;6.524;2023-05-07T21:10:00;1018.6;;;20.6
79148;BMP280;68562;51.600;6.524;2023-05-07T21:15:00;1018.6;;;20.6
79148;BMP280;68562;51.600;6.524;2023-05-07T21:20:00;1018.6;;;20.6
79148;BMP280;68562;51.600;6.524;2023-05-07T21:25:00;1018.6;;;20.5
79148;BMP280;68562;51.600;6.524;2023-05-07T21:30:00;1018.7;;;20.5
79148;BMP280;68562;51.600;6.524;2023-05-07T21:35:00;1018.7;;;20.5
79148;BMP280;68562;51.600;6.524;2023-05-07T21:40:00;1018.7;;;20.5
79148;BMP280;68562;51.600;6.524;2023-05-07T21:45:00;1018.7;;;20.5
79148;BMP280;68562;51.600;6.524;2023-05-07T21:50:00;1018.6;;;20.5
79148;BMP280;68562;51.600;6.524;2023-05-07T21:55:00;1018.7;;;20.4
79148;BMP280;68562;51.600;6.524;2023-05-07T22:00:00;1018.7;;;20.4
79148;BMP280;68562;51.600;6.524;2023-05-07T22:05:00;1018.7;;;20.4
79148;BMP280;68562;51.600;6.524;2023-05-07T22:10:00;1018.7;;;20.3
79148;BMP280;68562;51.600;6.524;2023-05-07T22:15:00;1018.8;;;20.3
79148;BMP280;68562;51.600;6.524;2023-05-07T22:20:00;1018.8;;;20.3
79148;BMP280;68562;51.600;6.524;2023-05-07T22:25:00;1018.8;;;20.2
79148;BMP280;68562;51.600;6.524;2023-05-07T22:30:00;1018.9;;;20.2
79148;BMP280;68562;51.600;6.524;2023-05-07T22:35:00;1018.9;;;20.2
79148;BMP280;68562;51.600;6.524;2023-05-07T22:40:00;1018.9;;;20.2
79148;BMP280;68562;51.600;6.524;2023-05-07T22:45:00;1018.9;;;20.2
79148;BMP280;68562;51.600;6.524;2023-05-07T22:50:00;1018.9;;;20.1
79148;BMP280;68562;51.600;6.524;2023-05-07T22:55:00;1018.9;;;20.1
79148;BMP280;68562;51.600;6.524;2023-05-07T23:00:00;1018.9;;;20.1
79148;BMP280;68562;51.600;6.524;2023-05-07T23:05:00;1018.9;;;20.1
79148;BMP280;68562;51.600;6.524;2023-05-07T23:10:00;1019.0;;;20.0
79148;BMP280;68562;51.600;6.524;2023-05-07T23:15:00;1019.0;;;20.0
79148;BMP280;68562;51.600;6.524;2023-05-07T23:20:00;1019.0;;;20.0
79148;BMP280;68562;51.600;6.524;2023-05-07T23:25:00;1019.0;;;20.0
79148;BMP280;68562;51.600;6.524;2023-05-07T23:30:00;1019.0;;;20.0
79148;BMP280;68562;51.600;6.524;2023-05-07T23:35:00;1018.9;;;20.0
79148;BMP280;68562;51.600;6.524;2023-05-07T23:40:00;1018.9;;;19.9
79148;BMP280;68562;51.600;6.524;2023-05-07T23:45:00;1018.9;;;19.9
79148;BMP280;68562;51.600;6.524;2023-05-07T23:50:00;1019.0;;;19.8
79148;BMP280;68562;51.600;6.524;2023-05-07T23:55:00;1019.0;;;19.8
